Time;durP1;ratioP1;P1;durP2;ratioP2;P2;SDS_P1;SDS_P2;PMS_P1;PMS_P2;Temp;Humidity;BMP_temperature;BMP_pressure;BME280_temperature;BME280_humidity;BME280_pressure;Samples;Min_cycle;Max_cycle;Signal;HPM_P1;HPM_P2
2023/08/31 00:02:45;;;;;;;6.40;2.33;;;;;;;13.74;96.93;99981.41;4897655;29;20059;-65
2023/08/31 00:05:51;;;;;;;4.97;2.25;;;;;;;13.70;97.13;99986.06;4897219;29;20042;-65
2023/08/31 00:13:08;;;;;;;4.28;2.50;;;;;;;13.52;97.65;99983.94;4895981;29;20078;-65
2023/08/31 00:16:12;;;;;;;6.25;2.33;;;;;;;13.46;97.65;99986.06;4908638;29;20525;-65
2023/08/31 00:19:16;;;;;;;4.70;2.05;;;;;;;13.56;97.15;99988.88;4917002;29;20099;-64
2023/08/31 00:22:19;;;;;;;6.47;2.50;;;;;;;13.59;97.04;99980.75;4917047;29;20050;-64
2023/08/31 00:25:23;;;;;;;6.28;2.60;;;;;;;13.57;96.73;99982.66;4905134;29;20529;-64
2023/08/31 00:28:27;;;;;;;6.60;2.38;;;;;;;13.56;96.43;99981.00;4915651;29;20528;-64
2023/08/31 00:31:30;;;;;;;4.93;2.10;;;;;;;13.48;96.46;99978.06;4904581;29;20470;-64
2023/08/31 00:34:35;;;;;;;5.95;2.25;;;;;;;13.52;96.39;99976.06;4915581;29;20466;-64
2023/08/31 00:37:38;;;;;;;3.72;2.10;;;;;;;13.51;96.92;99980.47;4904067;29;20055;-64
2023/08/31 00:40:45;;;;;;;3.30;1.83;;;;;;;13.46;97.03;99988.69;4914866;29;20099;-64
2023/08/31 00:43:48;;;;;;;3.78;2.25;;;;;;;13.43;96.63;99986.28;4892601;29;20059;-64
2023/08/31 00:46:51;;;;;;;5.70;2.00;;;;;;;13.42;96.56;99981.97;4916701;29;20530;-64
2023/08/31 00:49:55;;;;;;;3.70;1.63;;;;;;;13.41;96.67;99982.94;4904974;29;20463;-64
2023/08/31 00:52:58;;;;;;;;;;;;;;;13.38;96.71;99988.41;4899098;29;20107;-65
2023/08/31 00:56:02;;;;;;;5.63;2.45;;;;;;;13.41;96.48;99974.22;4916631;29;19921;-64
2023/08/31 00:59:05;;;;;;;3.90;2.05;;;;;;;13.31;96.74;99981.09;4904642;29;20091;-64
2023/08/31 01:02:41;;;;;;;6.18;1.85;;;;;;;13.31;96.41;99975.84;4916406;29;20176;-65
2023/08/31 01:05:54;;;;;;;4.07;1.98;;;;;;;13.34;96.24;99965.97;4915544;29;20095;-64
2023/08/31 01:09:10;;;;;;;6.55;1.92;;;;;;;13.37;96.42;99978.00;4916408;29;20055;-65
2023/08/31 01:12:21;;;;;;;4.85;1.60;;;;;;;13.38;95.63;99971.81;4915482;29;20128;-64
2023/08/31 01:15:26;;;;;;;4.47;1.90;;;;;;;13.38;95.41;99982.31;4916125;29;20059;-64
2023/08/31 01:18:33;;;;;;;2.85;1.52;;;;;;;13.33;95.42;99974.75;4916287;29;20075;-64
2023/08/31 01:21:42;;;;;;;6.38;2.20;;;;;;;13.39;95.38;99976.09;4916297;29;20051;-64
2023/08/31 01:24:45;;;;;;;4.45;1.85;;;;;;;13.37;95.59;99983.25;4904047;29;20055;-64
2023/08/31 01:27:48;;;;;;;;;;;;;;;13.20;96.23;99979.19;4905135;29;20055;-64
2023/08/31 01:30:52;;;;;;;9.57;3.45;;;;;;;13.16;96.83;99978.56;4904588;29;20293;-64
2023/08/31 01:33:55;;;;;;;5.70;3.22;;;;;;;13.22;97.64;99983.38;4916379;29;20522;-64
2023/08/31 01:37:07;;;;;;;7.43;3.65;;;;;;;13.23;97.92;99984.22;4915874;29;20119;-64
2023/08/31 01:40:26;;;;;;;4.93;3.05;;;;;;;13.21;97.89;99986.97;4919031;29;20418;-64
2023/08/31 01:43:31;;;;;;;3.78;2.78;;;;;;;13.31;97.17;99983.72;4919782;29;20058;-65
2023/08/31 01:46:35;;;;;;;7.85;2.83;;;;;;;13.27;96.43;99993.59;4908113;29;20152;-64
2023/08/31 01:49:39;;;;;;;5.25;2.70;;;;;;;13.24;96.92;99989.41;4908082;29;20059;-64
2023/08/31 01:52:42;;;;;;;9.05;2.30;;;;;;;13.23;96.41;99990.31;4919766;29;20042;-64
2023/08/31 01:55:46;;;;;;;3.75;2.67;;;;;;;13.26;96.36;99995.38;4908274;29;20100;-64
2023/08/31 01:58:49;;;;;;;6.32;2.30;;;;;;;13.20;96.56;100006.28;4897188;29;20107;-65
2023/08/31 02:01:53;;;;;;;5.93;3.58;;;;;;;13.08;97.30;99999.31;4919717;29;20051;-65
2023/08/31 02:04:56;;;;;;;4.07;2.50;;;;;;;13.17;97.02;100003.88;4919566;29;20095;-65
2023/08/31 02:08:01;;;;;;;5.00;3.25;;;;;;;13.15;96.96;99997.91;4919437;29;20091;-65
2023/08/31 02:11:05;;;;;;;7.75;2.40;;;;;;;13.19;96.91;100001.16;4919423;29;20127;-64
2023/08/31 02:14:07;;;;;;;;;;;;;;;13.22;96.66;100001.78;4907395;29;20673;-64
2023/08/31 02:17:11;;;;;;;5.38;3.25;;;;;;;13.19;97.29;99999.34;4888828;29;19922;-64
2023/08/31 02:20:14;;;;;;;4.88;2.92;;;;;;;13.25;97.06;100001.56;4900395;29;20051;-65
2023/08/31 02:23:17;;;;;;;8.23;3.20;;;;;;;13.26;97.48;99994.53;4888826;29;20462;-65
2023/08/31 02:26:22;;;;;;;5.47;2.88;;;;;;;13.25;97.76;99993.72;4900180;29;20724;-65
2023/08/31 02:29:25;;;;;;;6.55;3.60;;;;;;;13.24;97.90;99997.28;4900341;29;20108;-64
2023/08/31 02:32:28;;;;;;;4.70;3.38;;;;;;;13.22;97.91;99995.69;4900172;29;20066;-64
2023/08/31 02:35:32;;;;;;;5.80;2.95;;;;;;;13.21;98.22;100002.72;4888439;29;20047;-64
2023/08/31 02:38:36;;;;;;;6.30;3.08;;;;;;;13.28;97.45;99997.06;4899338;29;20086;-64
2023/08/31 02:41:39;;;;;;;4.53;3.15;;;;;;;13.19;97.88;100003.78;4887899;29;20091;-64
2023/08/31 02:44:42;;;;;;;4.18;3.33;;;;;;;13.19;98.09;100009.84;4899913;29;20059;-64
2023/08/31 02:47:46;;;;;;;6.13;3.20;;;;;;;13.13;98.32;100007.66;4892317;29;20184;-65
2023/08/31 02:50:49;;;;;;;6.07;3.30;;;;;;;13.09;99.41;100002.75;4887390;29;20132;-64
2023/08/31 02:53:53;;;;;;;7.00;3.17;;;;;;;13.10;98.71;100002.63;4899439;29;20043;-64
2023/08/31 02:56:56;;;;;;;5.57;3.15;;;;;;;13.10;98.68;100001.81;4899284;29;20096;-64
2023/08/31 02:59:59;;;;;;;5.35;3.83;;;;;;;13.10;98.10;100002.63;4887732;29;20482;-64
2023/08/31 03:03:03;;;;;;;8.10;3.42;;;;;;;13.08;97.81;99996.69;4899439;29;20422;-64
2023/08/31 03:06:08;;;;;;;9.32;3.90;;;;;;;13.04;97.99;100008.31;4887570;29;20142;-65
2023/08/31 03:09:13;;;;;;;3.58;3.03;;;;;;;13.02;98.02;100007.59;4899316;29;20051;-64
2023/08/31 03:12:16;;;;;;;6.80;3.38;;;;;;;12.98;97.96;100006.97;4887806;29;20111;-65
2023/08/31 03:15:19;;;;;;;7.38;3.90;;;;;;;12.98;97.97;100011.38;4903803;29;20513;-65
2023/08/31 03:18:58;;;;;;;5.85;3.60;;;;;;;12.99;97.64;100011.28;4905523;29;20058;-65
2023/08/31 03:22:02;;;;;;;7.80;3.13;;;;;;;12.94;97.34;100015.16;4917864;29;20466;-65
2023/08/31 03:25:06;;;;;;;9.73;3.30;;;;;;;12.96;97.43;100023.78;4917755;29;20082;-64
2023/08/31 03:28:10;;;;;;;7.95;3.45;;;;;;;12.99;97.20;100018.31;4917500;29;20051;-65
2023/08/31 03:31:16;;;;;;;7.97;3.80;;;;;;;12.95;97.64;100027.34;4917650;29;20055;-65
2023/08/31 03:34:19;;;;;;;;;;;;;;;12.96;97.75;100029.88;4918179;29;20517;-65
2023/08/31 03:37:22;;;;;;;4.07;3.15;;;;;;;12.93;97.43;100024.00;4906340;29;19922;-65
2023/08/31 03:40:26;;;;;;;8.18;3.83;;;;;;;12.90;97.37;100030.28;4917614;29;20051;-65
2023/08/31 03:43:29;;;;;;;;;;;;;;;12.90;97.09;100032.09;4905766;29;20107;-65
2023/08/31 03:46:33;;;;;;;10.30;4.05;;;;;;;12.88;96.77;100041.84;4905592;29;20006;-65
2023/08/31 03:49:36;;;;;;;6.78;4.07;;;;;;;12.75;97.46;100029.56;4906016;29;20098;-65
2023/08/31 03:52:40;;;;;;;8.15;3.42;;;;;;;12.76;97.70;100033.88;4917253;29;20043;-65
2023/08/31 03:55:43;;;;;;;12.55;5.07;;;;;;;12.73;97.71;100035.84;4905954;29;20087;-65
2023/08/31 03:58:46;;;;;;;9.57;3.65;;;;;;;12.69;98.17;100042.25;4917373;29;20110;-65
2023/08/31 04:01:49;;;;;;;5.70;3.80;;;;;;;12.66;98.33;100037.22;4917154;29;20700;-65
2023/08/31 04:04:53;;;;;;;6.80;3.72;;;;;;;12.62;97.68;100039.22;4905321;29;20099;-65
2023/08/31 04:07:56;;;;;;;11.18;3.90;;;;;;;12.52;98.80;100051.28;4917084;29;20038;-65
2023/08/31 04:11:00;;;;;;;5.60;3.55;;;;;;;12.57;98.10;100047.41;4905574;29;20143;-65
2023/08/31 04:14:03;;;;;;;5.20;4.00;;;;;;;12.50;98.06;100043.50;4917108;29;20082;-65
2023/08/31 04:17:06;;;;;;;12.52;4.60;;;;;;;12.47;98.74;100048.13;4905056;29;20099;-65
2023/08/31 04:20:11;;;;;;;10.07;3.95;;;;;;;12.42;99.17;100055.47;4916235;29;20526;-65
2023/08/31 04:23:15;;;;;;;8.73;3.72;;;;;;;12.41;99.25;100053.78;4916690;29;20059;-65
2023/08/31 04:26:18;;;;;;;;;;;;;;;12.38;99.07;100048.75;4917146;29;20111;-65
2023/08/31 04:29:21;;;;;;;10.23;3.87;;;;;;;12.40;99.02;100057.34;4916767;29;19921;-65
2023/08/31 04:32:25;;;;;;;8.32;3.92;;;;;;;12.39;98.85;100068.81;4916717;29;20326;-65
2023/08/31 04:35:29;;;;;;;7.13;3.65;;;;;;;12.47;98.06;100074.34;4916420;29;20067;-65
2023/08/31 04:38:34;;;;;;;4.55;3.90;;;;;;;12.44;97.93;100079.81;4916554;29;20512;-65
2023/08/31 04:41:37;;;;;;;5.00;3.50;;;;;;;12.22;98.54;100076.00;4916285;29;20565;-65
2023/08/31 04:44:40;;;;;;;;;;;;;;;12.32;98.31;100090.19;4915729;29;20126;-63
2023/08/31 04:47:43;;;;;;;7.80;3.70;;;;;;;12.39;98.37;100088.00;4915074;29;19926;-63
2023/08/31 04:50:46;;;;;;;11.13;4.07;;;;;;;12.40;97.43;100083.59;4915642;29;20554;-63
2023/08/31 04:53:50;;;;;;;7.95;2.90;;;;;;;12.47;97.13;100084.84;4915368;29;20074;-63
2023/08/31 04:56:53;;;;;;;14.55;3.42;;;;;;;12.34;96.85;100090.91;4914673;29;20043;-63
2023/08/31 04:59:56;;;;;;;6.75;3.00;;;;;;;12.38;97.24;100106.44;4915300;29;20055;-63
2023/08/31 05:02:59;;;;;;;4.43;3.28;;;;;;;12.33;97.24;100115.44;4903366;29;20471;-63
2023/08/31 05:06:04;;;;;;;;;;;;;;;12.39;97.01;100114.22;4915427;29;20194;-63
2023/08/31 05:09:08;;;;;;;9.18;3.30;;;;;;;12.30;97.24;100110.41;4913472;29;20288;-63
2023/08/31 05:12:11;;;;;;;5.28;2.95;;;;;;;12.29;97.26;100106.13;4914957;29;20050;-64
2023/08/31 05:15:14;;;;;;;7.90;2.90;;;;;;;12.26;96.44;100113.34;4914480;29;20471;-63
2023/08/31 05:18:18;;;;;;;3.88;2.40;;;;;;;12.29;95.65;100118.38;4914957;29;20111;-63
2023/08/31 05:21:21;;;;;;;;;;;;;;;12.22;95.38;100122.31;4914782;29;20047;-63
2023/08/31 05:24:24;;;;;;;10.15;2.33;;;;;;;12.16;94.78;100133.25;4914430;29;19922;-63
2023/08/31 05:27:27;;;;;;;7.00;2.72;;;;;;;12.13;95.56;100134.28;4914070;29;20078;-64
2023/08/31 05:30:31;;;;;;;3.65;2.35;;;;;;;12.17;95.48;100134.91;4914779;29;20417;-63
2023/08/31 05:33:34;;;;;;;6.65;2.50;;;;;;;12.21;95.74;100139.00;4914817;29;20047;-64
2023/08/31 05:36:37;;;;;;;6.53;3.20;;;;;;;12.29;95.23;100142.81;4914730;29;20195;-64
2023/08/31 05:39:41;;;;;;;5.25;2.45;;;;;;;12.29;94.94;100148.06;4914758;29;20047;-64
2023/08/31 05:42:44;;;;;;;;;;;;;;;12.34;95.01;100151.19;4914962;29;20108;-64
2023/08/31 05:45:47;;;;;;;7.00;2.45;;;;;;;12.32;95.49;100153.09;4914775;29;20463;-66
2023/08/31 05:48:52;;;;;;;6.10;3.08;;;;;;;12.30;95.71;100149.72;4902058;29;20047;-63
2023/08/31 05:51:55;;;;;;;7.70;3.20;;;;;;;12.39;95.65;100155.31;4914177;29;20059;-64
2023/08/31 05:54:59;;;;;;;7.60;3.20;;;;;;;12.47;95.25;100153.84;4914358;29;20050;-62
2023/08/31 05:58:02;;;;;;;4.40;2.05;;;;;;;12.51;94.94;100154.53;4914613;29;20039;-62
2023/08/31 06:01:07;;;;;;;9.38;2.65;;;;;;;12.56;95.22;100158.50;4914768;29;20490;-61
2023/08/31 06:04:10;;;;;;;5.72;2.25;;;;;;;12.59;95.17;100167.09;4914277;29;20094;-62
2023/08/31 06:07:13;;;;;;;;;;;;;;;12.55;95.60;100163.84;4914757;29;20228;-63
2023/08/31 06:10:16;;;;;;;4.57;2.10;;;;;;;12.57;95.84;100167.19;4914366;29;19982;-63
2023/08/31 06:13:19;;;;;;;7.90;2.95;;;;;;;12.57;95.78;100173.31;4914699;29;20070;-63
2023/08/31 06:16:23;;;;;;;;;;;;;;;12.54;95.90;100176.13;4912142;29;20099;-62
2023/08/31 06:19:26;;;;;;;6.95;2.00;;;;;;;12.64;96.21;100171.13;4913751;29;19974;-64
2023/08/31 06:22:30;;;;;;;3.78;2.15;;;;;;;12.65;96.45;100172.78;4914518;29;20139;-66
2023/08/31 06:25:33;;;;;;;6.35;2.20;;;;;;;12.64;97.22;100170.28;4915434;29;20107;-63
2023/08/31 06:28:36;;;;;;;5.90;2.42;;;;;;;12.68;97.75;100167.34;4906263;29;20054;-62
2023/08/31 06:31:40;;;;;;;4.72;2.15;;;;;;;12.78;98.20;100175.44;4917633;29;20039;-63
2023/08/31 06:34:43;;;;;;;4.53;2.25;;;;;;;12.91;98.81;100168.41;4917961;29;20087;-63
2023/08/31 06:38:10;;;;;;;5.13;2.45;;;;;;;13.04;98.93;100171.03;4917693;29;20162;-64
2023/08/31 06:41:13;;;;;;;5.07;2.10;;;;;;;13.13;99.12;100177.47;4916059;29;20103;-63
2023/08/31 06:44:17;;;;;;;6.13;2.20;;;;;;;13.16;99.17;100178.09;4916738;29;20050;-63
2023/08/31 06:47:20;;;;;;;;;;;;;;;13.23;95.95;100175.88;4914377;29;20501;-63
2023/08/31 06:50:23;;;;;;;6.32;1.95;;;;;;;13.12;95.25;100179.25;4917703;29;19971;-64
2023/08/31 06:53:27;;;;;;;7.22;2.40;;;;;;;13.16;93.07;100180.72;4917054;29;20050;-63
2023/08/31 06:56:30;;;;;;;8.70;2.30;;;;;;;13.23;91.88;100189.84;4917453;29;20096;-64
2023/08/31 06:59:37;;;;;;;6.90;2.40;;;;;;;13.29;91.54;100187.78;4917650;29;20136;-64
2023/08/31 07:02:43;;;;;;;9.35;2.45;;;;;;;13.25;91.36;100193.25;4915573;29;20051;-64
2023/08/31 07:05:47;;;;;;;7.22;2.50;;;;;;;13.34;90.81;100191.78;4915153;29;20073;-64
2023/08/31 07:08:50;;;;;;;8.38;2.50;;;;;;;13.40;90.61;100188.72;4916358;29;20048;-64
2023/08/31 07:11:53;;;;;;;9.85;2.28;;;;;;;13.36;88.38;100199.53;4916036;29;20082;-64
2023/08/31 07:14:57;;;;;;;6.35;2.28;;;;;;;13.45;89.41;100193.66;4915923;29;20704;-65
2023/08/31 07:18:00;;;;;;;6.72;3.00;;;;;;;13.44;89.79;100191.97;4917246;29;20055;-64
2023/08/31 07:21:08;;;;;;;6.50;2.45;;;;;;;13.81;88.98;100186.75;4917028;29;20416;-64
2023/08/31 07:24:11;;;;;;;12.20;2.63;;;;;;;13.89;86.07;100190.53;4917094;29;20055;-63
2023/08/31 07:27:15;;;;;;;7.68;2.03;;;;;;;13.77;87.85;100195.81;4916686;29;20132;-62
2023/08/31 07:30:18;;;;;;;9.73;2.53;;;;;;;13.65;86.87;100200.97;4916936;29;20050;-64
2023/08/31 07:33:21;;;;;;;7.05;2.30;;;;;;;13.70;88.16;100193.63;4916734;29;20043;-64
2023/08/31 07:36:25;;;;;;;5.88;1.95;;;;;;;13.71;86.86;100197.06;4916229;29;20103;-64
2023/08/31 07:39:29;;;;;;;9.18;2.30;;;;;;;13.77;87.81;100199.28;4916653;29;20135;-63
2023/08/31 07:42:32;;;;;;;6.18;2.28;;;;;;;13.92;86.42;100198.19;4916201;29;20071;-63
2023/08/31 07:45:35;;;;;;;;;;;;;;;14.00;84.98;100189.75;4916461;29;20070;-64
2023/08/31 07:48:39;;;;;;;7.03;2.60;;;;;;;14.19;84.71;100210.28;4916024;29;19934;-69
2023/08/31 07:51:43;;;;;;;8.85;2.10;;;;;;;14.56;84.34;100211.13;4916537;29;20055;-66
2023/08/31 07:54:46;;;;;;;8.35;2.35;;;;;;;14.68;81.78;100209.38;4916499;29;20079;-66
2023/08/31 07:57:49;;;;;;;7.47;1.60;;;;;;;14.71;80.45;100221.44;4916492;29;20520;-64
2023/08/31 08:00:54;;;;;;;8.95;2.85;;;;;;;14.31;82.13;100221.72;4912554;29;20047;-63
2023/08/31 08:03:57;;;;;;;5.15;1.70;;;;;;;14.34;81.16;100224.97;4898645;29;20050;-63
2023/08/31 08:07:03;;;;;;;5.93;2.33;;;;;;;14.33;79.75;100222.47;4927292;29;20047;-63
2023/08/31 08:10:10;;;;;;;6.82;1.95;;;;;;;14.58;79.51;100219.75;4935143;29;20043;-63
2023/08/31 08:13:14;;;;;;;5.85;1.50;;;;;;;14.28;79.76;100217.53;4934711;29;20046;-63
2023/08/31 08:16:19;;;;;;;6.10;2.40;;;;;;;14.38;79.41;100228.22;4934175;29;20066;-64
2023/08/31 08:19:24;;;;;;;5.03;1.65;;;;;;;14.34;80.25;100245.16;4923190;29;20058;-63
2023/08/31 08:22:33;;;;;;;5.07;1.50;;;;;;;14.43;80.16;100237.44;4936110;29;20058;-65
2023/08/31 08:25:37;;;;;;;7.63;2.60;;;;;;;14.36;79.29;100249.38;4935228;29;20126;-63
2023/08/31 08:28:41;;;;;;;6.57;1.98;;;;;;;14.27;78.76;100252.66;4934720;29;20129;-61
2023/08/31 08:32:34;;;;;;;4.30;1.38;;;;;;;14.33;78.85;100249.59;4934066;29;20101;-60
2023/08/31 08:35:38;;;;;;;6.53;2.33;;;;;;;14.57;78.13;100259.31;4934608;29;20106;-60
2023/08/31 08:38:46;;;;;;;4.90;1.55;;;;;;;14.77;76.55;100247.31;4914146;29;20061;-68
2023/08/31 08:42:19;;;;;;;8.00;1.60;;;;;;;15.02;75.57;100255.06;4934829;29;20465;-60
2023/08/31 08:45:26;;;;;;;6.25;2.00;;;;;;;14.83;75.03;100257.38;4918001;29;20043;-62
2023/08/31 08:52:07;;;;;;;9.82;1.88;;;;;;;14.90;75.80;100258.63;4896375;29;20071;-62
2023/08/31 08:55:11;;;;;;;5.47;1.50;;;;;;;15.08;76.01;100257.22;4899335;29;20071;-61
2023/08/31 08:58:20;;;;;;;7.78;2.13;;;;;;;15.13;76.22;100258.69;4903413;29;20411;-61
2023/08/31 09:01:26;;;;;;;6.32;1.45;;;;;;;15.07;76.98;100265.25;4917609;29;20050;-61
2023/08/31 09:04:30;;;;;;;10.05;2.35;;;;;;;14.96;75.59;100260.78;4933689;29;20047;-62
2023/08/31 09:07:38;;;;;;;7.90;1.92;;;;;;;14.85;74.99;100281.81;4921715;29;20126;-62
2023/08/31 09:10:45;;;;;;;5.22;1.67;;;;;;;14.85;76.45;100261.59;4933527;29;20119;-62
2023/08/31 09:13:49;;;;;;;6.40;1.63;;;;;;;14.91;77.00;100268.19;4933313;29;20123;-64
2023/08/31 09:16:53;;;;;;;9.15;2.00;;;;;;;15.23;77.13;100270.22;4932770;29;20066;-64
2023/08/31 09:20:04;;;;;;;5.82;1.73;;;;;;;15.28;76.09;100268.91;4933031;29;20050;-64
2023/08/31 09:23:09;;;;;;;7.00;2.20;;;;;;;15.56;75.21;100272.88;4933606;29;20098;-67
2023/08/31 09:26:13;;;;;;;6.38;1.58;;;;;;;15.62;73.91;100271.56;4933663;29;20086;-65
2023/08/31 09:29:16;;;;;;;5.55;1.98;;;;;;;15.71;72.99;100268.25;4933177;29;20051;-64
2023/08/31 09:32:20;;;;;;;10.25;1.90;;;;;;;15.77;73.84;100280.97;4927463;29;20050;-64
2023/08/31 09:39:42;;;;;;;4.63;1.35;;;;;;;15.86;70.51;100274.16;4915351;29;20517;-65
2023/08/31 09:42:50;;;;;;;7.93;1.90;;;;;;;15.86;69.43;100286.47;4915403;29;20486;-64
2023/08/31 09:45:54;;;;;;;6.63;1.70;;;;;;;15.77;69.03;100278.31;4932122;29;20080;-65
2023/08/31 09:48:58;;;;;;;9.80;1.70;;;;;;;15.88;69.23;100263.47;4923222;29;20422;-64
2023/08/31 09:52:04;;;;;;;7.55;1.60;;;;;;;16.10;68.68;100262.59;4895043;29;20129;-64
2023/08/31 09:55:08;;;;;;;6.82;2.08;;;;;;;16.16;68.58;100265.59;4882430;29;20471;-64
2023/08/31 09:58:12;;;;;;;6.53;1.90;;;;;;;16.34;68.70;100262.47;4894111;29;20124;-63
2023/08/31 10:01:16;;;;;;;6.55;2.00;;;;;;;16.38;68.10;100274.44;4920580;29;20055;-64
2023/08/31 10:04:20;;;;;;;5.43;1.42;;;;;;;16.35;67.58;100270.25;4915786;29;20183;-64
2023/08/31 10:07:24;;;;;;;4.93;1.60;;;;;;;16.49;66.97;100264.66;4918130;29;20107;-69
2023/08/31 10:10:30;;;;;;;7.07;1.38;;;;;;;16.67;66.50;100266.78;4918284;29;20046;-69
2023/08/31 10:13:36;;;;;;;6.50;1.63;;;;;;;16.43;66.88;100269.59;4918327;29;20047;-69
2023/08/31 10:16:40;;;;;;;6.38;1.50;;;;;;;16.39;67.16;100282.22;4906555;29;20078;-68
2023/08/31 10:19:45;;;;;;;5.20;1.50;;;;;;;16.54;67.83;100269.59;4917526;29;20047;-69
2023/08/31 10:23:17;;;;;;;8.00;1.85;;;;;;;16.47;68.00;100263.16;4918760;29;20059;-70
2023/08/31 10:26:30;;;;;;;8.48;2.10;;;;;;;16.45;67.39;100260.59;4918128;29;20124;-69
2023/08/31 10:29:34;;;;;;;;;;;;;;;16.58;66.87;100259.63;4907062;29;20254;-69
2023/08/31 10:32:41;;;;;;;5.43;1.60;;;;;;;16.58;65.91;100270.19;4917818;29;20399;-69
2023/08/31 10:35:47;;;;;;;5.60;1.55;;;;;;;16.56;66.01;100258.91;4918085;29;20051;-63
2023/08/31 10:38:56;;;;;;;5.78;1.63;;;;;;;16.41;66.95;100269.75;4917912;29;20051;-63
2023/08/31 10:42:00;;;;;;;4.53;1.60;;;;;;;16.44;66.96;100258.94;4916511;29;20071;-63
2023/08/31 10:45:06;;;;;;;7.68;2.10;;;;;;;16.59;65.57;100266.56;4917209;29;20046;-63
2023/08/31 10:48:10;;;;;;;5.47;1.80;;;;;;;16.57;65.34;100274.63;4932243;29;20413;-63
2023/08/31 10:51:18;;;;;;;4.30;1.40;;;;;;;16.70;65.69;100267.38;4936395;29;20107;-63
2023/08/31 10:54:30;;;;;;;4.57;1.50;;;;;;;16.89;65.12;100266.72;4936271;29;20111;-71
2023/08/31 10:57:35;;;;;;;8.95;2.00;;;;;;;17.19;64.17;100257.19;4917755;29;20043;-71
2023/08/31 11:00:56;;;;;;;6.38;1.58;;;;;;;17.33;62.38;100263.97;4922969;29;20054;-72
2023/08/31 11:04:00;;;;;;;2.63;1.20;;;;;;;17.33;62.59;100270.09;4934958;29;20059;-71
2023/08/31 11:11:19;;;;;;;4.30;1.85;;;;;;;17.59;61.59;100251.19;4936163;29;20046;-64
2023/08/31 11:14:23;;;;;;;5.07;1.70;;;;;;;17.76;60.85;100253.19;4936519;29;20038;-63
2023/08/31 11:17:27;;;;;;;4.10;1.30;;;;;;;17.88;61.78;100246.88;4919239;29;20047;-64
2023/08/31 11:20:31;;;;;;;7.60;2.53;;;;;;;17.89;60.86;100256.47;4915893;29;20111;-63
2023/08/31 11:23:35;;;;;;;6.80;1.40;;;;;;;17.85;59.90;100249.78;4897387;29;20109;-63
2023/08/31 11:26:39;;;;;;;4.95;1.70;;;;;;;17.98;59.14;100246.06;4898034;29;20127;-62
2023/08/31 11:29:44;;;;;;;5.88;1.98;;;;;;;17.87;58.92;100239.09;4892338;29;20047;-65
2023/08/31 11:32:51;;;;;;;7.80;2.00;;;;;;;17.98;57.91;100241.63;4905782;29;20043;-66
2023/08/31 11:35:54;;;;;;;3.97;1.30;;;;;;;18.44;59.51;100226.09;4905660;29;20115;-63
2023/08/31 11:38:57;;;;;;;6.57;1.73;;;;;;;18.67;56.62;100224.03;4926223;29;20569;-64
2023/08/31 11:42:00;;;;;;;5.57;1.50;;;;;;;18.85;55.51;100226.84;4935288;29;20147;-69
2023/08/31 11:45:05;;;;;;;5.53;1.80;;;;;;;18.87;55.04;100227.53;4935073;29;20485;-68
2023/08/31 11:48:09;;;;;;;6.82;1.65;;;;;;;18.75;54.26;100230.31;4934761;29;20124;-69
2023/08/31 11:51:13;;;;;;;4.72;1.63;;;;;;;18.48;54.38;100220.41;4935331;29;20121;-62
2023/08/31 11:54:17;;;;;;;4.20;1.33;;;;;;;18.16;54.67;100219.81;4923423;29;20212;-62
2023/08/31 11:57:26;;;;;;;5.05;1.35;;;;;;;18.33;54.08;100214.66;4934599;29;20568;-62
2023/08/31 12:00:29;;;;;;;398.50;49.40;;;;;;;18.43;54.74;100216.50;4914928;29;20059;-62
2023/08/31 12:03:46;;;;;;;11.10;2.85;;;;;;;18.78;53.84;100235.34;4915211;29;20046;-61
2023/08/31 12:06:51;;;;;;;9.32;2.38;;;;;;;18.79;52.88;100226.44;4915872;29;20600;-62
2023/08/31 12:10:01;;;;;;;7.97;2.50;;;;;;;18.52;53.38;100235.03;4915122;29;20522;-62
2023/08/31 12:13:12;;;;;;;6.07;1.40;;;;;;;18.56;53.34;100228.47;4915776;29;20054;-61
2023/08/31 12:16:17;;;;;;;3.75;1.13;;;;;;;18.53;53.98;100219.97;4915147;29;20054;-65
2023/08/31 12:19:28;;;;;;;4.72;1.38;;;;;;;18.47;54.45;100233.75;4915639;29;20132;-63
2023/08/31 12:22:31;;;;;;;6.68;2.08;;;;;;;18.64;53.28;100222.50;4915358;29;20411;-63
2023/08/31 12:25:34;;;;;;;4.38;1.58;;;;;;;19.12;51.72;100231.41;4914518;29;20051;-64
2023/08/31 12:28:38;;;;;;;6.97;2.00;;;;;;;19.52;50.16;100217.88;4932018;29;20054;-61
2023/08/31 12:31:41;;;;;;;4.70;1.30;;;;;;;19.62;50.21;100220.50;4932376;29;20071;-61
2023/08/31 12:34:44;;;;;;;3.55;1.45;;;;;;;18.98;50.56;100219.41;4934425;29;20074;-61
2023/08/31 12:38:11;;;;;;;5.43;1.42;;;;;;;18.94;51.73;100218.03;4934465;29;20062;-61
2023/08/31 12:41:14;;;;;;;5.60;1.70;;;;;;;19.20;50.39;100218.25;4925513;29;20435;-61
2023/08/31 12:44:18;;;;;;;7.00;1.73;;;;;;;19.62;48.84;100218.72;4913565;29;20047;-62
2023/08/31 12:47:21;;;;;;;5.28;1.75;;;;;;;20.16;47.67;100209.06;4923216;29;20058;-62
2023/08/31 12:50:25;;;;;;;6.80;1.58;;;;;;;20.80;45.54;100209.84;4934234;29;20410;-63
2023/08/31 12:53:31;;;;;;;4.65;1.15;;;;;;;20.03;46.19;100205.94;4919615;29;20143;-63
2023/08/31 12:56:35;;;;;;;4.47;1.67;;;;;;;19.86;46.28;100204.09;4914603;29;20098;-62
2023/08/31 12:59:38;;;;;;;5.10;1.40;;;;;;;21.04;43.75;100203.91;4912350;29;20154;-63
2023/08/31 13:03:13;;;;;;;5.72;1.70;;;;;;;22.09;43.08;100198.44;4914460;29;20131;-63
2023/08/31 13:06:19;;;;;;;5.00;2.05;;;;;;;22.23;41.92;100203.16;4914803;29;20051;-62
2023/08/31 13:09:23;;;;;;;7.22;1.60;;;;;;;21.69;42.90;100197.31;4914980;29;20051;-62
2023/08/31 13:12:28;;;;;;;4.10;1.45;;;;;;;20.99;43.91;100194.72;4914719;29;20121;-62
2023/08/31 13:15:33;;;;;;;5.13;1.70;;;;;;;19.95;46.82;100187.28;4914482;29;20090;-63
2023/08/31 13:22:28;;;;;;;3.67;1.20;;;;;;;19.53;47.17;100198.38;4909839;29;20051;-62
2023/08/31 13:25:31;;;;;;;3.97;1.75;;;;;;;19.36;49.06;100215.00;4912335;29;20043;-70
2023/08/31 13:28:35;;;;;;;6.38;1.65;;;;;;;20.31;45.58;100198.78;4912346;29;20083;-69
2023/08/31 13:31:39;;;;;;;4.68;1.73;;;;;;;19.79;47.16;100200.38;4912496;29;20050;-70
2023/08/31 13:34:43;;;;;;;5.13;1.75;;;;;;;19.67;48.00;100189.13;4913530;29;20466;-70
2023/08/31 13:37:46;;;;;;;5.05;1.77;;;;;;;20.70;47.15;100181.72;4917786;29;20043;-69
2023/08/31 13:40:54;;;;;;;3.65;1.85;;;;;;;21.87;43.47;100182.06;4917507;29;20108;-70
2023/08/31 13:44:40;;;;;;;3.65;1.75;;;;;;;28.35;32.29;100175.50;4916670;29;20103;-71
2023/08/31 13:47:48;;;;;;;6.28;1.55;;;;;;;25.35;35.96;100179.50;4912708;29;20066;-70
2023/08/31 13:50:52;;;;;;;3.08;1.52;;;;;;;22.54;40.92;100181.22;4912598;29;20118;-70
2023/08/31 13:53:56;;;;;;;4.32;1.50;;;;;;;21.71;43.42;100174.88;4918403;29;20517;-70
2023/08/31 13:56:59;;;;;;;4.72;2.22;;;;;;;21.83;43.37;100175.41;4914711;29;20043;-70
2023/08/31 14:00:04;;;;;;;4.78;1.95;;;;;;;23.52;39.80;100163.25;4916230;29;20166;-70
2023/08/31 14:03:12;;;;;;;6.45;1.70;;;;;;;25.36;36.30;100162.41;4917131;29;20051;-70
2023/08/31 14:06:15;;;;;;;4.45;1.70;;;;;;;23.10;39.14;100174.19;4915641;29;20086;-70
2023/08/31 14:09:19;;;;;;;3.78;1.20;;;;;;;22.20;42.57;100166.19;4916077;29;20047;-69
2023/08/31 14:12:24;;;;;;;5.50;1.55;;;;;;;22.33;41.45;100160.41;4913675;29;20134;-67
2023/08/31 14:15:27;;;;;;;4.20;1.70;;;;;;;28.63;30.04;100160.03;4931932;29;20150;-64
2023/08/31 14:18:31;;;;;;;8.05;1.83;;;;;;;32.96;24.65;100141.72;4912888;29;20043;-65
2023/08/31 14:21:35;;;;;;;5.43;2.35;;;;;;;26.36;32.66;100151.03;4915674;29;20043;-67
2023/08/31 14:24:38;;;;;;;5.47;1.60;;;;;;;24.39;36.55;100149.75;4916001;29;20102;-66
2023/08/31 14:27:42;;;;;;;3.20;1.23;;;;;;;28.35;28.49;100149.44;4916104;29;20187;-66
2023/08/31 14:30:45;;;;;;;5.10;1.70;;;;;;;24.05;35.32;100159.00;4915684;29;20115;-67
2023/08/31 14:33:50;;;;;;;7.18;1.63;;;;;;;23.07;37.60;100174.53;4915566;29;20135;-66
2023/08/31 14:36:57;;;;;;;4.88;1.85;;;;;;;22.72;38.52;100165.91;4915666;29;20039;-66
2023/08/31 14:40:06;;;;;;;5.65;1.90;;;;;;;25.61;33.41;100155.75;4916440;29;20082;-66
2023/08/31 14:43:14;;;;;;;4.38;1.75;;;;;;;29.57;26.79;100158.84;4914680;29;20047;-66
2023/08/31 14:46:21;;;;;;;4.65;1.75;;;;;;;27.91;29.33;100147.28;4914529;29;20096;-67
2023/08/31 14:49:27;;;;;;;5.78;2.22;;;;;;;24.68;33.89;100165.06;4916881;29;20364;-63